createdAt,value
2023-01-25T00:00:07.704Z,0
2023-01-25T00:06:54.563Z,0
2023-01-25T00:09:08.758Z,0
2023-01-25T00:09:49.299Z,0
2023-01-25T00:10:29.805Z,0
2023-01-25T00:11:10.348Z,0
2023-01-25T00:13:24.861Z,0
2023-01-25T00:14:05.357Z,0
2023-01-25T00:14:45.920Z,0
2023-01-25T00:15:26.398Z,0
2023-01-25T00:18:49.687Z,0
2023-01-25T00:19:30.202Z,0
2023-01-25T00:20:10.675Z,0
2023-01-25T00:20:51.212Z,0
2023-01-25T00:21:32.365Z,0
2023-01-25T00:22:13.645Z,0
2023-01-25T00:22:54.183Z,0
2023-01-25T00:28:19.724Z,0
2023-01-25T00:29:00.341Z,0
2023-01-25T00:29:40.840Z,0
2023-01-25T00:30:21.382Z,0
2023-01-25T00:31:01.917Z,0
2023-01-25T00:31:42.643Z,0
2023-01-25T00:34:20.974Z,0
2023-01-25T00:35:01.547Z,0
2023-01-25T00:35:42.063Z,0
2023-01-25T00:36:22.655Z,0
2023-01-25T00:40:38.534Z,0
2023-01-25T00:41:19.993Z,0
2023-01-25T00:42:01.479Z,0
2023-01-25T00:42:42.137Z,0
2023-01-25T00:43:23.178Z,0
2023-01-25T00:44:03.773Z,0
2023-01-25T00:44:45.939Z,0
2023-01-25T00:45:26.564Z,0
2023-01-25T00:46:07.078Z,0
2023-01-25T00:50:22.504Z,0
2023-01-25T00:51:03.041Z,0
2023-01-25T00:51:43.562Z,0
2023-01-25T00:52:24.079Z,0
2023-01-25T00:55:48.244Z,0
2023-01-25T00:56:29.664Z,0
2023-01-25T00:57:10.162Z,0
2023-01-25T00:59:48.617Z,0
2023-01-25T01:00:29.189Z,0
2023-01-25T01:01:09.709Z,0
2023-01-25T01:01:50.166Z,0
2023-01-25T01:04:43.773Z,0
2023-01-25T01:05:24.253Z,0
2023-01-25T01:06:04.803Z,0
2023-01-25T01:06:45.335Z,0
2023-01-25T01:08:48.420Z,0
2023-01-25T01:09:28.966Z,0
2023-01-25T01:10:09.480Z,0
2023-01-25T01:10:49.986Z,0
2023-01-25T01:11:30.524Z,0
2023-01-25T01:12:11.091Z,0
2023-01-25T01:12:51.620Z,0
2023-01-25T01:13:32.122Z,0
2023-01-25T01:14:12.641Z,0
2023-01-25T01:14:53.212Z,0
2023-01-25T01:20:18.375Z,0
2023-01-25T01:20:58.907Z,0
2023-01-25T01:21:39.449Z,0
2023-01-25T01:22:19.968Z,0
2023-01-25T01:23:00.530Z,0
2023-01-25T01:23:41.128Z,0
2023-01-25T01:24:21.629Z,0
2023-01-25T01:25:02.149Z,0
2023-01-25T01:25:42.674Z,0
2023-01-25T01:26:23.189Z,0
2023-01-25T01:33:08.570Z,0
2023-01-25T01:33:49.071Z,0
2023-01-25T01:34:29.599Z,0
2023-01-25T01:35:10.464Z,0
2023-01-25T01:35:50.711Z,0
2023-01-25T01:36:31.233Z,0
2023-01-25T01:37:12.424Z,0
2023-01-25T01:37:52.941Z,0
2023-01-25T01:43:30.555Z,0
2023-01-25T01:44:11.106Z,0
2023-01-25T01:44:51.633Z,0
2023-01-25T01:45:33.764Z,0
2023-01-25T01:47:47.268Z,0
2023-01-25T01:48:27.793Z,0
2023-01-25T01:49:08.282Z,0
2023-01-25T01:49:48.841Z,0
2023-01-25T01:53:12.399Z,0
2023-01-25T01:53:52.898Z,0
2023-01-25T01:54:33.426Z,0
2023-01-25T01:55:13.944Z,0
2023-01-25T01:55:54.432Z,0
2023-01-25T01:56:35.031Z,0
2023-01-25T01:57:15.508Z,0
2023-01-25T01:57:56.039Z,0
2023-01-25T01:58:36.564Z,0
2023-01-25T02:04:12.198Z,0
2023-01-25T02:04:53.312Z,0
2023-01-25T02:05:33.831Z,0
2023-01-25T02:06:15.089Z,0
2023-01-25T02:08:57.232Z,0
2023-01-25T02:09:37.783Z,0
2023-01-25T02:10:18.289Z,0
2023-01-25T02:10:58.813Z,0
2023-01-25T02:11:39.364Z,0
2023-01-25T02:12:19.881Z,0
2023-01-25T02:13:00.388Z,0
2023-01-25T02:13:40.891Z,0
2023-01-25T02:14:21.407Z,0
2023-01-25T02:19:06.831Z,0
2023-01-25T02:19:47.327Z,0
2023-01-25T02:20:27.843Z,0
2023-01-25T02:21:08.415Z,0
2023-01-25T02:21:48.944Z,0
2023-01-25T02:22:29.493Z,0
2023-01-25T02:23:10.094Z,0
2023-01-25T02:23:50.619Z,0
2023-01-25T02:24:31.164Z,0
2023-01-25T02:25:11.719Z,0
2023-01-25T02:30:09.419Z,0
2023-01-25T02:30:49.953Z,0
2023-01-25T02:31:31.494Z,0
2023-01-25T02:32:11.958Z,0
2023-01-25T02:36:07.842Z,0
2023-01-25T02:36:48.327Z,0
2023-01-25T02:37:31.512Z,0
2023-01-25T02:38:12.917Z,0
2023-01-25T02:38:53.437Z,0
2023-01-25T02:39:34.536Z,0
2023-01-25T02:40:15.664Z,0
2023-01-25T02:40:56.147Z,0
2023-01-25T02:41:36.677Z,0
2023-01-25T02:42:17.188Z,0
2023-01-25T02:45:53.111Z,0
2023-01-25T02:46:33.698Z,0
2023-01-25T02:47:14.133Z,0
2023-01-25T02:47:54.594Z,0
2023-01-25T02:52:25.408Z,0
2023-01-25T02:53:05.942Z,0
2023-01-25T02:53:46.506Z,0
2023-01-25T02:54:27.103Z,0
2023-01-25T02:56:48.195Z,0
2023-01-25T02:57:28.723Z,0
2023-01-25T02:58:09.185Z,0
2023-01-25T02:58:49.704Z,0
2023-01-25T03:02:52.850Z,0
2023-01-25T03:05:31.279Z,0
2023-01-25T03:06:11.820Z,0
2023-01-25T03:06:52.340Z,0
2023-01-25T03:07:32.869Z,0
2023-01-25T03:13:09.006Z,0
2023-01-25T03:13:49.505Z,0
2023-01-25T03:14:30.028Z,0
2023-01-25T03:15:10.710Z,0
2023-01-25T03:15:54.065Z,0
2023-01-25T03:16:34.544Z,0
2023-01-25T03:19:12.948Z,0
2023-01-25T03:19:53.467Z,0
2023-01-25T03:20:33.990Z,0
2023-01-25T03:21:14.552Z,0
2023-01-25T03:25:18.367Z,0
2023-01-25T03:25:58.899Z,0
2023-01-25T03:26:39.444Z,0
2023-01-25T03:27:19.963Z,0
2023-01-25T03:28:00.511Z,0
2023-01-25T03:28:41.044Z,0
2023-01-25T03:29:21.559Z,0
2023-01-25T03:34:07.894Z,0
2023-01-25T03:34:48.425Z,0
2023-01-25T03:37:27.443Z,0
2023-01-25T03:38:07.903Z,0
2023-01-25T03:38:48.454Z,0
2023-01-25T03:39:28.989Z,0
2023-01-25T03:44:12.471Z,0
2023-01-25T03:44:52.955Z,0
2023-01-25T03:45:34.313Z,0
2023-01-25T03:46:14.816Z,0
2023-01-25T03:46:55.335Z,0
2023-01-25T03:47:35.817Z,0
2023-01-25T03:48:16.356Z,0
2023-01-25T03:48:56.877Z,0
2023-01-25T03:51:50.426Z,0
2023-01-25T03:52:30.966Z,0
2023-01-25T03:53:11.478Z,0
2023-01-25T03:53:52.011Z,0
2023-01-25T03:56:11.605Z,0
2023-01-25T03:56:52.127Z,0
2023-01-25T03:57:33.246Z,0
2023-01-25T03:58:13.740Z,0
2023-01-25T04:01:36.249Z,0
2023-01-25T04:02:16.778Z,0
2023-01-25T04:02:57.191Z,0
2023-01-25T04:03:37.699Z,0
2023-01-25T04:04:18.274Z,0
2023-01-25T04:04:58.732Z,0
2023-01-25T04:05:39.259Z,0
2023-01-25T04:06:19.773Z,0
2023-01-25T04:07:00.248Z,0
2023-01-25T04:07:40.746Z,0
2023-01-25T04:08:21.235Z,0
2023-01-25T04:13:01.632Z,0
2023-01-25T04:13:42.191Z,0
2023-01-25T04:14:38.897Z,0
2023-01-25T04:15:05.002Z,0
2023-01-25T04:16:26.057Z,0
2023-01-25T04:17:06.553Z,0
2023-01-25T04:17:47.052Z,0
2023-01-25T04:18:27.566Z,0
2023-01-25T04:19:08.117Z,0
2023-01-25T04:19:49.222Z,0
2023-01-25T04:20:29.767Z,0
2023-01-25T04:21:10.285Z,0
2023-01-25T04:27:15.983Z,0
2023-01-25T04:27:56.504Z,0
2023-01-25T04:28:37.040Z,0
2023-01-25T04:29:17.618Z,0
2023-01-25T04:29:58.142Z,0
2023-01-25T04:30:38.622Z,0
2023-01-25T04:31:19.189Z,0
2023-01-25T04:31:59.756Z,0
2023-01-25T04:32:40.266Z,0
2023-01-25T04:36:45.901Z,0
2023-01-25T04:37:26.428Z,0
2023-01-25T04:38:06.919Z,0
2023-01-25T04:40:45.393Z,0
2023-01-25T04:41:25.907Z,0
2023-01-25T04:42:06.397Z,0
2023-01-25T04:42:46.920Z,0
2023-01-25T04:46:10.473Z,0
2023-01-25T04:46:50.932Z,0
2023-01-25T04:47:31.439Z,0
2023-01-25T04:48:11.985Z,0
2023-01-25T04:48:52.507Z,0
2023-01-25T04:49:33.033Z,0
2023-01-25T04:50:13.547Z,0
2023-01-25T04:50:54.044Z,0
2023-01-25T04:51:34.584Z,0
2023-01-25T04:55:09.404Z,0
2023-01-25T04:55:49.626Z,0
2023-01-25T04:56:30.826Z,0
2023-01-25T04:57:12.153Z,0
2023-01-25T04:59:54.162Z,0
2023-01-25T05:00:34.664Z,0
2023-01-25T05:01:15.270Z,0
2023-01-25T05:01:55.719Z,0
2023-01-25T05:02:36.218Z,0
2023-01-25T05:03:16.740Z,0
2023-01-25T05:03:57.268Z,0
2023-01-25T05:04:37.749Z,0
2023-01-25T05:05:18.225Z,0
2023-01-25T05:05:58.774Z,0
2023-01-25T05:10:18.413Z,0
2023-01-25T05:10:58.929Z,0
2023-01-25T05:11:39.451Z,0
2023-01-25T05:12:19.994Z,0
2023-01-25T05:15:43.243Z,0
2023-01-25T05:16:23.824Z,0
2023-01-25T05:17:04.359Z,0
2023-01-25T05:17:44.793Z,0
2023-01-25T05:18:26.277Z,0
2023-01-25T05:19:05.852Z,0
2023-01-25T05:19:46.363Z,0
2023-01-25T05:20:26.917Z,0
2023-01-25T05:21:07.466Z,0
2023-01-25T05:25:22.867Z,0
2023-01-25T05:26:03.389Z,0
2023-01-25T05:26:44.584Z,0
2023-01-25T05:27:25.103Z,0
2023-01-25T05:30:18.627Z,0
2023-01-25T05:30:59.239Z,0
2023-01-25T05:31:39.753Z,0
2023-01-25T05:32:20.215Z,0
2023-01-25T05:36:24.094Z,0
2023-01-25T05:37:04.626Z,0
2023-01-25T05:37:45.179Z,0
2023-01-25T05:38:26.692Z,0
2023-01-25T05:39:08.083Z,0
2023-01-25T05:44:46.038Z,0
2023-01-25T05:45:24.054Z,0
2023-01-25T05:46:04.581Z,0
2023-01-25T05:46:46.615Z,0
2023-01-25T05:48:48.203Z,0
2023-01-25T05:49:28.704Z,0
2023-01-25T05:50:09.631Z,0
2023-01-25T05:50:49.769Z,0
2023-01-25T05:51:30.263Z,0
2023-01-25T05:54:08.800Z,0
2023-01-25T05:54:49.316Z,0
2023-01-25T05:55:29.837Z,0
2023-01-25T05:56:10.382Z,0
2023-01-25T06:00:13.505Z,0
2023-01-25T06:00:54.037Z,0
2023-01-25T06:01:34.563Z,0
2023-01-25T06:02:15.184Z,0
2023-01-25T06:02:55.761Z,0
2023-01-25T06:03:36.943Z,0
2023-01-25T06:04:17.351Z,0
2023-01-25T06:04:57.864Z,0
2023-01-25T06:05:38.406Z,0
2023-01-25T06:12:24.506Z,0
2023-01-25T06:13:05.002Z,0
2023-01-25T06:13:45.529Z,0
2023-01-25T06:14:26.052Z,0
2023-01-25T06:15:07.018Z,0
2023-01-25T06:15:47.194Z,0
2023-01-25T06:16:27.766Z,0
2023-01-25T06:17:08.266Z,0
2023-01-25T06:23:13.726Z,0
2023-01-25T06:23:54.262Z,0
2023-01-25T06:24:34.758Z,0
2023-01-25T06:25:15.282Z,0
2023-01-25T06:25:55.815Z,0
2023-01-25T06:26:36.372Z,0
2023-01-25T06:27:16.890Z,0
2023-01-25T06:27:57.405Z,0
2023-01-25T06:28:38.040Z,0
2023-01-25T06:31:32.482Z,0
2023-01-25T06:32:12.983Z,0
2023-01-25T06:32:54.148Z,0
2023-01-25T06:35:32.586Z,0
2023-01-25T06:36:13.105Z,0
2023-01-25T06:36:53.590Z,0
2023-01-25T06:37:35.055Z,0
2023-01-25T06:40:17.523Z,0
2023-01-25T06:40:58.021Z,0
2023-01-25T06:41:39.342Z,0
2023-01-25T06:42:19.859Z,0
2023-01-25T06:43:01.238Z,0
2023-01-25T06:43:41.766Z,0
2023-01-25T06:47:43.020Z,0
2023-01-25T06:48:23.554Z,0
2023-01-25T06:49:04.856Z,0
2023-01-25T06:49:45.391Z,0
2023-01-25T06:55:41.005Z,0
2023-01-25T06:56:21.641Z,0
2023-01-25T06:57:02.082Z,0
2023-01-25T06:57:42.636Z,0
2023-01-25T07:02:39.123Z,0
2023-01-25T07:03:19.582Z,0
2023-01-25T07:04:00.189Z,0
2023-01-25T07:04:40.690Z,0
2023-01-25T07:06:56.224Z,0
2023-01-25T07:07:37.250Z,0
2023-01-25T07:08:17.830Z,0
2023-01-25T07:08:58.433Z,0
2023-01-25T07:12:58.417Z,0
2023-01-25T07:13:38.927Z,0
2023-01-25T07:14:19.450Z,0
2023-01-25T07:15:00.119Z,0
2023-01-25T07:19:03.443Z,0
2023-01-25T07:19:43.960Z,0
2023-01-25T07:20:25.195Z,0
2023-01-25T07:21:05.745Z,0
2023-01-25T07:21:46.261Z,0
2023-01-25T07:22:26.746Z,0
2023-01-25T07:25:05.293Z,5
2023-01-25T07:25:45.807Z,5
2023-01-25T07:26:26.418Z,5
2023-01-25T07:27:06.948Z,5
2023-01-25T07:29:50.029Z,5
2023-01-25T07:30:30.574Z,5
2023-01-25T07:31:11.843Z,5
2023-01-25T07:31:52.395Z,5
2023-01-25T07:34:20.602Z,5
2023-01-25T07:35:01.118Z,5
2023-01-25T07:35:41.668Z,5
2023-01-25T07:36:22.211Z,5
2023-01-25T07:40:25.291Z,5
2023-01-25T07:41:05.801Z,10
2023-01-25T07:41:46.320Z,10
2023-01-25T07:42:26.850Z,10
2023-01-25T07:43:07.368Z,10
2023-01-25T07:43:47.896Z,10
2023-01-25T07:44:28.418Z,10
2023-01-25T07:45:09.235Z,10
2023-01-25T07:45:50.172Z,10
2023-01-25T07:51:55.566Z,10
2023-01-25T07:52:36.079Z,10
2023-01-25T07:55:14.537Z,10
2023-01-25T07:55:55.067Z,10
2023-01-25T07:56:35.594Z,15
2023-01-25T07:57:16.117Z,15
2023-01-25T08:02:53.273Z,15
2023-01-25T08:03:33.789Z,20
2023-01-25T08:04:14.323Z,15
2023-01-25T08:06:52.829Z,20
2023-01-25T08:07:33.320Z,20
2023-01-25T08:08:13.828Z,20
2023-01-25T08:08:54.345Z,20
2023-01-25T08:11:13.115Z,20
2023-01-25T08:11:53.662Z,25
2023-01-25T08:12:34.098Z,25
2023-01-25T08:13:14.689Z,25
2023-01-25T08:15:53.125Z,20
2023-01-25T08:16:33.702Z,20
2023-01-25T08:17:14.175Z,20
2023-01-25T08:17:54.689Z,20
2023-01-25T08:19:58.229Z,20
2023-01-25T08:20:38.743Z,20
2023-01-25T08:23:17.207Z,25
2023-01-25T08:23:57.745Z,20
2023-01-25T08:24:38.232Z,25
2023-01-25T08:25:18.688Z,25
2023-01-25T08:28:55.541Z,30
2023-01-25T08:29:37.043Z,30
2023-01-25T08:30:19.526Z,25
2023-01-25T08:31:01.521Z,25
2023-01-25T08:33:15.717Z,30
2023-01-25T08:33:56.256Z,30
2023-01-25T08:34:36.764Z,30
2023-01-25T08:35:17.247Z,30
2023-01-25T08:40:00.781Z,35
2023-01-25T08:40:41.276Z,35
2023-01-25T08:41:21.813Z,40
2023-01-25T08:42:02.288Z,40
2023-01-25T08:42:42.820Z,35
2023-01-25T08:43:23.309Z,40
2023-01-25T08:44:03.838Z,40
2023-01-25T08:44:44.314Z,40
2023-01-25T08:50:50.609Z,45
2023-01-25T08:51:31.175Z,45
2023-01-25T08:52:11.707Z,45
2023-01-25T08:52:52.280Z,40
2023-01-25T08:53:32.800Z,40
2023-01-25T08:54:13.320Z,40
2023-01-25T08:54:53.803Z,45
2023-01-25T08:55:34.324Z,45
2023-01-25T08:56:14.845Z,45
2023-01-25T08:56:55.392Z,40
2023-01-25T09:03:00.772Z,50
2023-01-25T09:03:41.329Z,50
2023-01-25T09:04:22.631Z,50
2023-01-25T09:05:03.139Z,45
2023-01-25T09:05:43.670Z,45
2023-01-25T09:06:24.237Z,45
2023-01-25T09:09:02.452Z,50
2023-01-25T09:09:42.997Z,50
2023-01-25T09:10:25.239Z,45
2023-01-25T09:11:05.771Z,45
2023-01-25T09:13:08.695Z,45
2023-01-25T09:13:47.904Z,45
2023-01-25T09:14:28.479Z,45
2023-01-25T09:17:06.654Z,50
2023-01-25T09:17:47.203Z,45
2023-01-25T09:18:27.721Z,45
2023-01-25T09:19:08.242Z,45
2023-01-25T09:23:11.367Z,50
2023-01-25T09:24:05.318Z,55
2023-01-25T09:24:34.790Z,55
2023-01-25T09:25:13.483Z,60
2023-01-25T09:25:53.975Z,60
2023-01-25T09:26:34.505Z,60
2023-01-25T09:27:15.022Z,55
2023-01-25T09:27:56.215Z,55
2023-01-25T09:35:08.897Z,60
2023-01-25T09:35:49.479Z,65
2023-01-25T09:36:30.102Z,65
2023-01-25T09:37:10.653Z,65
2023-01-25T09:37:52.827Z,60
2023-01-25T09:38:33.357Z,60
2023-01-25T09:39:14.628Z,60
2023-01-25T09:39:55.117Z,60
2023-01-25T09:40:35.653Z,60
2023-01-25T09:41:16.132Z,60
2023-01-25T09:41:58.351Z,60
2023-01-25T09:42:37.093Z,65
2023-01-25T09:43:17.594Z,70
2023-01-25T09:47:47.456Z,65
2023-01-25T09:48:27.991Z,70
2023-01-25T09:49:09.559Z,70
2023-01-25T09:49:49.036Z,70
2023-01-25T09:51:12.089Z,70
2023-01-25T09:51:52.724Z,70
2023-01-25T09:52:33.325Z,70
2023-01-25T09:53:15.170Z,70
2023-01-25T09:53:55.694Z,70
2023-01-25T09:57:25.156Z,75
2023-01-25T09:59:32.683Z,75
2023-01-25T10:00:13.461Z,75
2023-01-25T10:02:41.818Z,75
2023-01-25T10:03:22.221Z,75
2023-01-25T10:04:02.785Z,75
2023-01-25T10:04:43.432Z,75
2023-01-25T10:07:26.440Z,85
2023-01-25T10:08:08.536Z,85
2023-01-25T10:08:49.079Z,80
2023-01-25T10:11:27.423Z,75
2023-01-25T10:12:07.931Z,75
2023-01-25T10:12:48.438Z,75
2023-01-25T10:13:29.042Z,75
2023-01-25T10:16:52.131Z,80
2023-01-25T10:17:34.037Z,80
2023-01-25T10:18:14.704Z,80
2023-01-25T10:18:55.249Z,80
2023-01-25T10:19:35.795Z,75
2023-01-25T10:20:16.364Z,75
2023-01-25T10:20:56.960Z,80
2023-01-25T10:25:52.184Z,80
2023-01-25T10:26:32.709Z,80
2023-01-25T10:27:13.204Z,80
2023-01-25T10:27:53.730Z,80
2023-01-25T10:31:17.268Z,75
2023-01-25T10:31:57.826Z,75
2023-01-25T10:32:44.621Z,75
2023-01-25T10:34:56.555Z,80
2023-01-25T10:35:35.641Z,80
2023-01-25T10:36:12.469Z,85
2023-01-25T10:36:54.478Z,85
2023-01-25T10:38:56.063Z,80
2023-01-25T10:39:36.603Z,75
2023-01-25T10:40:17.127Z,75
2023-01-25T10:42:55.628Z,75
2023-01-25T10:43:36.125Z,75
2023-01-25T10:44:16.651Z,80
2023-01-25T10:44:57.186Z,80
2023-01-25T10:47:40.310Z,75
2023-01-25T10:48:21.512Z,75
2023-01-25T10:49:02.030Z,75
2023-01-25T10:51:40.556Z,75
2023-01-25T10:52:21.082Z,75
2023-01-25T10:53:01.626Z,75
2023-01-25T10:53:42.131Z,75
2023-01-25T10:56:36.548Z,70
2023-01-25T10:57:17.100Z,70
2023-01-25T10:57:57.630Z,80
2023-01-25T10:58:38.154Z,85
2023-01-25T11:01:20.354Z,75
2023-01-25T11:02:00.864Z,75
2023-01-25T11:02:41.356Z,70
2023-01-25T11:10:13.943Z,60
2023-01-25T11:10:54.447Z,60
2023-01-25T11:11:34.963Z,65
2023-01-25T11:12:15.485Z,65
2023-01-25T11:17:27.964Z,65
2023-01-25T11:18:10.409Z,65
2023-01-25T11:18:50.968Z,65
2023-01-25T11:21:29.320Z,60
2023-01-25T11:22:09.815Z,60
2023-01-25T11:22:50.353Z,65
2023-01-25T11:23:30.888Z,65
2023-01-25T11:26:05.461Z,65
2023-01-25T11:26:46.904Z,65
2023-01-25T11:27:28.158Z,65
2023-01-25T11:28:08.701Z,60
2023-01-25T11:30:28.736Z,55
2023-01-25T11:31:09.324Z,60
2023-01-25T11:31:50.528Z,60
2023-01-25T11:32:30.992Z,60
2023-01-25T11:36:49.229Z,60
2023-01-25T11:37:29.755Z,60
2023-01-25T11:38:10.879Z,55
2023-01-25T11:40:52.418Z,55
2023-01-25T11:41:35.206Z,55
2023-01-25T11:42:16.433Z,55
2023-01-25T11:42:56.999Z,55
2023-01-25T11:45:25.566Z,55
2023-01-25T11:46:06.220Z,55
2023-01-25T11:46:46.780Z,60
2023-01-25T11:47:27.445Z,60
2023-01-25T11:49:30.512Z,65
2023-01-25T11:50:11.464Z,65
2023-01-25T11:50:52.435Z,70
2023-01-25T11:51:33.524Z,75
2023-01-25T11:52:14.038Z,75
2023-01-25T11:52:54.668Z,75
2023-01-25T11:56:03.555Z,75
2023-01-25T11:56:44.052Z,70
2023-01-25T11:57:24.590Z,70
2023-01-25T11:58:05.106Z,70
2023-01-25T12:01:45.921Z,65
2023-01-25T12:02:26.460Z,65
2023-01-25T12:03:06.999Z,65
2023-01-25T12:03:47.533Z,65
2023-01-25T12:08:43.302Z,75
2023-01-25T12:09:24.810Z,75
2023-01-25T12:10:06.038Z,75
2023-01-25T12:10:47.501Z,75
2023-01-25T12:13:03.551Z,75
2023-01-25T12:13:44.069Z,75
2023-01-25T12:14:25.268Z,70
2023-01-25T12:15:07.437Z,70
2023-01-25T12:17:48.633Z,70
2023-01-25T12:18:29.120Z,70
2023-01-25T12:19:09.617Z,70
2023-01-25T12:19:50.140Z,70
2023-01-25T12:20:31.504Z,70
2023-01-25T12:25:44.388Z,60
2023-01-25T12:26:24.925Z,60
2023-01-25T12:27:05.472Z,60
2023-01-25T12:27:46.912Z,60
2023-01-25T12:29:08.975Z,60
2023-01-25T12:29:50.310Z,60
2023-01-25T12:30:30.843Z,60
2023-01-25T12:31:11.402Z,60
2023-01-25T12:31:51.967Z,60
2023-01-25T12:32:32.422Z,60
2023-01-25T12:33:14.549Z,60
2023-01-25T12:33:53.395Z,60
2023-01-25T12:43:15.227Z,60
2023-01-25T12:43:55.714Z,60
2023-01-25T12:44:36.935Z,60
2023-01-25T12:45:18.320Z,60
2023-01-25T12:46:39.437Z,65
2023-01-25T12:47:19.900Z,65
2023-01-25T12:48:02.242Z,65
2023-01-25T12:48:42.735Z,65
2023-01-25T12:49:23.289Z,65
2023-01-25T12:50:04.730Z,65
2023-01-25T12:53:18.633Z,65
2023-01-25T12:53:59.189Z,65
2023-01-25T12:54:39.712Z,60
2023-01-25T12:55:20.218Z,65
2023-01-25T12:58:43.691Z,65
2023-01-25T12:59:24.213Z,65
2023-01-25T13:00:04.746Z,65
2023-01-25T13:00:45.274Z,65
2023-01-25T13:01:26.697Z,65
2023-01-25T13:02:07.271Z,65
2023-01-25T13:06:19.765Z,65
2023-01-25T13:07:00.328Z,65
2023-01-25T13:07:40.923Z,65
2023-01-25T13:08:30.944Z,65
2023-01-25T13:13:22.127Z,65
2023-01-25T13:14:02.700Z,65
2023-01-25T13:14:43.259Z,65
2023-01-25T13:15:23.807Z,65
2023-01-25T13:19:26.975Z,60
2023-01-25T13:20:08.054Z,60
2023-01-25T13:22:42.872Z,60
2023-01-25T13:23:23.579Z,60
2023-01-25T13:24:04.999Z,60
2023-01-25T13:24:46.239Z,60
2023-01-25T13:27:01.844Z,60
2023-01-25T13:27:43.312Z,55
2023-01-25T13:28:25.337Z,55
2023-01-25T13:29:06.874Z,55
2023-01-25T13:31:51.347Z,55
2023-01-25T13:32:22.609Z,55
2023-01-25T13:33:03.146Z,55
2023-01-25T13:33:44.631Z,55
2023-01-25T13:36:13.966Z,55
2023-01-25T13:36:54.458Z,55
2023-01-25T13:37:35.000Z,55
2023-01-25T13:38:16.289Z,55
2023-01-25T13:41:39.052Z,55
2023-01-25T13:42:19.615Z,55
2023-01-25T13:43:00.152Z,50
2023-01-25T13:43:41.633Z,50
2023-01-25T13:44:22.167Z,50
2023-01-25T13:45:02.728Z,50
2023-01-25T13:45:43.289Z,50
2023-01-25T13:51:59.930Z,45
2023-01-25T13:52:40.417Z,45
2023-01-25T13:53:21.089Z,45
2023-01-25T13:54:01.642Z,45
2023-01-25T13:56:15.170Z,45
2023-01-25T13:56:55.752Z,45
2023-01-25T13:57:36.265Z,45
2023-01-25T13:58:16.768Z,40
2023-01-25T14:01:40.138Z,40
2023-01-25T14:02:20.706Z,40
2023-01-25T14:04:59.248Z,40
2023-01-25T14:05:40.855Z,40
2023-01-25T14:06:21.380Z,40
2023-01-25T14:07:01.920Z,40
2023-01-25T14:09:43.979Z,40
2023-01-25T14:10:24.520Z,40
2023-01-25T14:11:05.069Z,40
2023-01-25T14:13:23.995Z,35
2023-01-25T14:14:05.139Z,35
2023-01-25T14:14:46.325Z,35
2023-01-25T14:15:26.870Z,35
2023-01-25T14:16:08.262Z,35
2023-01-25T14:16:48.684Z,35
2023-01-25T14:17:29.182Z,35
2023-01-25T14:18:09.701Z,35
2023-01-25T14:18:50.173Z,35
2023-01-25T14:19:30.690Z,35
2023-01-25T14:20:11.836Z,35
2023-01-25T14:20:52.337Z,35
2023-01-25T14:21:32.851Z,35
2023-01-25T14:26:32.886Z,30
2023-01-25T14:27:15.407Z,30
2023-01-25T14:27:57.786Z,30
2023-01-25T14:30:33.034Z,30
2023-01-25T14:31:13.559Z,30
2023-01-25T14:31:54.822Z,30
2023-01-25T14:32:35.996Z,30
2023-01-25T14:33:57.851Z,30
2023-01-25T14:34:38.478Z,30
2023-01-25T14:35:18.956Z,30
2023-01-25T14:36:05.837Z,30
2023-01-25T14:36:40.115Z,30
2023-01-25T14:37:20.661Z,30
2023-01-25T14:38:01.227Z,30
2023-01-25T14:38:41.693Z,30
2023-01-25T14:39:22.324Z,30
2023-01-25T14:41:29.257Z,25
2023-01-25T14:43:42.254Z,25
2023-01-25T14:44:22.831Z,25
2023-01-25T14:45:03.361Z,25
2023-01-25T14:45:43.889Z,25
2023-01-25T14:49:46.941Z,25
2023-01-25T14:50:27.389Z,25
2023-01-25T14:51:08.475Z,25
2023-01-25T14:51:48.983Z,25
2023-01-25T14:52:29.470Z,25
2023-01-25T14:53:09.964Z,25
2023-01-25T14:53:50.456Z,25
2023-01-25T14:54:30.984Z,20
2023-01-25T14:55:11.413Z,20
2023-01-25T15:01:03.370Z,20
2023-01-25T15:01:43.893Z,20
2023-01-25T15:02:24.551Z,20
2023-01-25T15:03:05.117Z,20
2023-01-25T15:06:21.351Z,20
2023-01-25T15:07:12.693Z,20
2023-01-25T15:07:42.448Z,20
2023-01-25T15:08:22.985Z,20
2023-01-25T15:12:22.887Z,15
2023-01-25T15:13:13.478Z,15
2023-01-25T15:13:46.286Z,15
2023-01-25T15:14:28.266Z,15
2023-01-25T15:16:57.228Z,15
2023-01-25T15:17:38.278Z,15
2023-01-25T15:18:19.635Z,15
2023-01-25T15:19:01.675Z,15
2023-01-25T15:21:32.044Z,15
2023-01-25T15:22:13.468Z,15
2023-01-25T15:22:53.971Z,15
2023-01-25T15:23:34.531Z,15
2023-01-25T15:25:48.089Z,10
2023-01-25T15:26:29.365Z,10
2023-01-25T15:27:09.864Z,10
2023-01-25T15:27:50.401Z,10
2023-01-25T15:30:05.005Z,10
2023-01-25T15:30:45.618Z,10
2023-01-25T15:31:26.165Z,10
2023-01-25T15:32:06.555Z,10
2023-01-25T15:34:21.061Z,10
2023-01-25T15:35:01.559Z,10
2023-01-25T15:35:42.054Z,10
2023-01-25T15:36:22.583Z,10
2023-01-25T15:38:36.426Z,5
2023-01-25T15:39:17.663Z,5
2023-01-25T15:39:58.198Z,5
2023-01-25T15:40:38.693Z,5
2023-01-25T15:42:40.300Z,5
2023-01-25T15:45:08.615Z,5
2023-01-25T15:45:49.161Z,5
2023-01-25T15:46:29.614Z,5
2023-01-25T15:47:10.143Z,5
2023-01-25T15:51:13.338Z,5
2023-01-25T15:51:53.856Z,5
2023-01-25T15:52:34.380Z,5
2023-01-25T15:53:14.930Z,5
2023-01-25T15:55:53.371Z,0
2023-01-25T15:56:33.945Z,0
2023-01-25T15:57:14.458Z,0
2023-01-25T15:57:54.960Z,0
2023-01-25T16:01:18.393Z,0
2023-01-25T16:01:58.893Z,0
2023-01-25T16:04:37.345Z,0
2023-01-25T16:05:17.892Z,0
2023-01-25T16:05:58.419Z,0
2023-01-25T16:06:38.992Z,0
2023-01-25T16:11:13.499Z,0
2023-01-25T16:11:54.032Z,0
2023-01-25T16:12:35.081Z,0
2023-01-25T16:13:15.641Z,0
2023-01-25T16:16:38.445Z,0
2023-01-25T16:17:18.951Z,0
2023-01-25T16:17:59.512Z,0
2023-01-25T16:18:40.050Z,0
2023-01-25T16:19:20.644Z,0
2023-01-25T16:20:01.092Z,0
2023-01-25T16:20:41.618Z,0
2023-01-25T16:21:22.295Z,0
2023-01-25T16:22:02.813Z,0
2023-01-25T16:28:48.246Z,0
2023-01-25T16:29:28.783Z,0
2023-01-25T16:30:09.594Z,0
2023-01-25T16:30:49.999Z,0
2023-01-25T16:31:33.063Z,0
2023-01-25T16:32:10.972Z,0
2023-01-25T16:32:51.516Z,0
2023-01-25T16:33:32.006Z,0
2023-01-25T16:37:08.551Z,0
2023-01-25T16:37:49.766Z,0
2023-01-25T16:38:33.199Z,0
2023-01-25T16:39:15.802Z,0
2023-01-25T16:41:29.351Z,0
2023-01-25T16:42:09.840Z,0
2023-01-25T16:42:50.356Z,0
2023-01-25T16:43:41.532Z,0
2023-01-25T16:46:54.399Z,0
2023-01-25T16:47:34.896Z,0
2023-01-25T16:48:16.098Z,0
2023-01-25T16:48:56.599Z,0
2023-01-25T16:49:37.056Z,0
2023-01-25T16:50:17.576Z,0
2023-01-25T16:50:58.149Z,0
2023-01-25T16:51:38.716Z,0
2023-01-25T16:59:04.385Z,0
2023-01-25T16:59:44.903Z,0
2023-01-25T17:00:25.386Z,0
2023-01-25T17:01:05.986Z,0
2023-01-25T17:01:47.896Z,0
2023-01-25T17:02:28.948Z,0
2023-01-25T17:03:53.901Z,0
2023-01-25T17:04:34.433Z,0
2023-01-25T17:05:15.808Z,0
2023-01-25T17:05:57.248Z,0
2023-01-25T17:06:37.745Z,0
2023-01-25T17:07:18.288Z,0
2023-01-25T17:07:58.821Z,0
2023-01-25T17:12:44.825Z,0
2023-01-25T17:13:25.339Z,0
2023-01-25T17:14:05.901Z,0
2023-01-25T17:14:46.388Z,0
2023-01-25T17:15:26.935Z,0
2023-01-25T17:16:07.494Z,0
2023-01-25T17:16:48.304Z,0
2023-01-25T17:17:28.524Z,0
2023-01-25T17:24:26.197Z,0
2023-01-25T17:25:06.635Z,0
2023-01-25T17:25:47.170Z,0
2023-01-25T17:26:27.686Z,0
2023-01-25T17:28:42.181Z,0
2023-01-25T17:29:22.695Z,0
2023-01-25T17:30:03.191Z,0
2023-01-25T17:30:43.796Z,0
2023-01-25T17:34:46.831Z,0
2023-01-25T17:35:27.382Z,0
2023-01-25T17:36:08.894Z,0
2023-01-25T17:36:49.424Z,0
2023-01-25T17:37:29.941Z,0
2023-01-25T17:38:10.452Z,0
2023-01-25T17:38:50.959Z,0
2023-01-25T17:39:31.495Z,0
2023-01-25T17:46:28.920Z,0
2023-01-25T17:47:09.367Z,0
2023-01-25T17:47:49.883Z,0
2023-01-25T17:48:30.465Z,0
2023-01-25T17:51:10.301Z,0
2023-01-25T17:51:51.322Z,0
2023-01-25T17:52:31.806Z,0
2023-01-25T17:53:12.888Z,0
2023-01-25T17:55:54.982Z,0
2023-01-25T17:56:37.898Z,0
2023-01-25T17:57:16.052Z,0
2023-01-25T17:57:56.618Z,0
2023-01-25T17:58:37.746Z,0
2023-01-25T17:59:18.948Z,0
2023-01-25T18:00:00.424Z,0
2023-01-25T18:03:36.405Z,0
2023-01-25T18:04:16.905Z,0
2023-01-25T18:04:58.566Z,0
2023-01-25T18:05:39.082Z,0
2023-01-25T18:07:53.625Z,0
2023-01-25T18:08:34.108Z,0
2023-01-25T18:09:14.602Z,0
2023-01-25T18:09:55.159Z,0
2023-01-25T18:13:19.393Z,0
2023-01-25T18:13:59.917Z,0
2023-01-25T18:14:41.195Z,0
2023-01-25T18:15:21.751Z,0
2023-01-25T18:16:02.321Z,0
2023-01-25T18:18:42.272Z,0
2023-01-25T18:19:22.765Z,0
2023-01-25T18:20:03.243Z,0
2023-01-25T18:20:43.764Z,0
2023-01-25T18:24:07.947Z,0
2023-01-25T18:24:48.437Z,0